Time,TemperatureF,DewpointF,PressureIn,WindDirection,WindDirectionDegrees,WindSpeedMPH,WindSpeedGustMPH,Humidity,HourlyPrecipIn,Conditions,Clouds,dailyrainin,SoftwareType,DateUTC
2013-02-08 00:01:00,32.0,19.0,-100.00,SSE,168,4.0,6.0,60,0.00,,,-99.99,,2013-02-08 07:01:00,
2013-02-08 00:11:00,31.0,20.0,-100.00,SSW,209,2.0,4.0,61,0.00,,,-99.99,,2013-02-08 07:11:00,
2013-02-08 00:21:00,30.0,21.0,-100.00,East,97,2.0,2.0,68,0.00,,,-99.99,,2013-02-08 07:21:00,
2013-02-08 00:31:00,30.0,21.0,-100.00,East,97,2.0,2.0,68,0.00,,,-99.99,,2013-02-08 07:31:00,
2013-02-08 00:42:00,30.0,21.0,-100.00,East,97,2.0,2.0,68,0.00,,,-99.99,,2013-02-08 07:42:00,
2013-02-08 00:52:00,30.0,21.0,-100.00,ESE,109,0.0,1.0,69,0.00,,,-99.99,,2013-02-08 07:52:00,
2013-02-08 01:01:00,30.0,21.0,-100.00,ESE,109,0.0,1.0,69,0.00,,,-99.99,,2013-02-08 08:01:00,
2013-02-08 01:11:00,30.0,21.0,-100.00,SE,144,4.0,6.0,69,0.00,,,-99.99,,2013-02-08 08:11:00,
2013-02-08 01:21:00,29.0,21.0,-100.00,SSE,154,3.0,5.0,70,0.00,,,-99.99,,2013-02-08 08:21:00,
2013-02-08 01:32:00,29.0,21.0,-100.00,SSE,154,3.0,5.0,70,0.00,,,-99.99,,2013-02-08 08:32:00,
2013-02-08 01:42:00,29.0,21.0,-100.00,SSE,154,3.0,5.0,70,0.00,,,-99.99,,2013-02-08 08:42:00,
2013-02-08 01:52:00,30.0,20.0,-100.00,South,176,3.0,4.0,66,0.00,,,-99.99,,2013-02-08 08:52:00,
2013-02-08 02:02:00,30.0,20.0,-100.00,South,176,3.0,4.0,66,0.00,,,-99.99,,2013-02-08 09:02:00,
2013-02-08 02:11:00,30.0,20.0,-100.00,SSW,212,2.0,3.0,67,0.00,,,-99.99,,2013-02-08 09:11:00,
2013-02-08 02:21:00,30.0,21.0,-100.00,SW,224,2.0,4.0,69,0.00,,,-99.99,,2013-02-08 09:21:00,
2013-02-08 02:31:00,30.0,21.0,-100.00,SW,224,2.0,4.0,69,0.00,,,-99.99,,2013-02-08 09:31:00,
2013-02-08 02:42:00,30.0,19.0,-100.00,SSE,157,7.0,9.0,63,0.00,,,-99.99,,2013-02-08 09:42:00,
2013-02-08 02:52:00,30.0,19.0,-100.00,SSE,157,7.0,9.0,63,0.00,,,-99.99,,2013-02-08 09:52:00,
2013-02-08 03:01:00,30.0,19.0,-100.00,SSE,157,7.0,9.0,63,0.00,,,-99.99,,2013-02-08 10:01:00,
2013-02-08 03:11:00,30.0,19.0,-100.00,SW,217,0.0,1.0,64,0.00,,,-99.99,,2013-02-08 10:11:00,
2013-02-08 03:22:00,30.0,19.0,-100.00,SSW,202,3.0,4.0,64,0.00,,,-99.99,,2013-02-08 10:22:00,
2013-02-08 03:31:00,30.0,19.0,-100.00,SSW,202,3.0,4.0,64,0.00,,,-99.99,,2013-02-08 10:31:00,
2013-02-08 03:41:00,30.0,19.0,-100.00,SSW,202,3.0,4.0,64,0.00,,,-99.99,,2013-02-08 10:41:00,
2013-02-08 03:52:00,30.0,20.0,-100.00,SSW,198,5.0,6.0,65,0.00,,,-99.99,,2013-02-08 10:52:00,
2013-02-08 04:01:00,30.0,20.0,-100.00,SSW,198,5.0,6.0,65,0.00,,,-99.99,,2013-02-08 11:01:00,
2013-02-08 04:11:00,30.0,19.0,-100.00,SSW,192,4.0,6.0,63,0.00,,,-99.99,,2013-02-08 11:11:00,
2013-02-08 04:21:00,29.0,20.0,-100.00,SSW,213,4.0,5.0,67,0.00,,,-99.99,,2013-02-08 11:21:00,
2013-02-08 04:32:00,29.0,20.0,-100.00,SSW,213,4.0,5.0,67,0.00,,,-99.99,,2013-02-08 11:32:00,
2013-02-08 04:41:00,29.0,20.0,-100.00,South,186,4.0,4.0,69,0.00,,,-99.99,,2013-02-08 11:41:00,
2013-02-08 04:52:00,31.0,21.0,-100.00,NE,34,5.0,6.0,65,0.00,,,-99.99,,2013-02-08 11:52:00,
2013-02-08 05:01:00,31.0,21.0,-100.00,NE,34,5.0,6.0,65,0.00,,,-99.99,,2013-02-08 12:01:00,
2013-02-08 05:11:00,31.0,21.0,-100.00,NE,34,5.0,6.0,65,0.00,,,-99.99,,2013-02-08 12:11:00,
2013-02-08 05:22:00,30.0,21.0,-100.00,NW,326,0.0,1.0,69,0.00,,,-99.99,,2013-02-08 12:22:00,
2013-02-08 05:32:00,30.0,21.0,-100.00,NW,326,0.0,1.0,69,0.00,,,-99.99,,2013-02-08 12:32:00,
2013-02-08 05:42:00,29.0,21.0,-100.00,SW,229,0.0,1.0,72,0.00,,,-99.99,,2013-02-08 12:42:00,
2013-02-08 05:52:00,29.0,21.0,-100.00,South,175,2.0,4.0,74,0.00,,,-99.99,,2013-02-08 12:52:00,
2013-02-08 06:01:00,29.0,21.0,-100.00,South,175,2.0,4.0,74,0.00,,,-99.99,,2013-02-08 13:01:00,
2013-02-08 06:11:00,29.0,21.0,-100.00,South,175,2.0,4.0,74,0.00,,,-99.99,,2013-02-08 13:11:00,
2013-02-08 06:21:00,28.0,21.0,-100.00,ESE,107,0.0,1.0,75,0.00,,,-99.99,,2013-02-08 13:21:00,
2013-02-08 06:32:00,28.0,21.0,-100.00,ESE,107,0.0,1.0,75,0.00,,,-99.99,,2013-02-08 13:32:00,
2013-02-08 06:42:00,28.0,21.0,-100.00,SSW,195,2.0,3.0,74,0.00,,,-99.99,,2013-02-08 13:42:00,
2013-02-08 06:52:00,28.0,21.0,-100.00,SSW,195,2.0,3.0,74,0.00,,,-99.99,,2013-02-08 13:52:00,
2013-02-08 07:02:00,28.0,21.0,-100.00,SSW,195,2.0,3.0,74,0.00,,,-99.99,,2013-02-08 14:02:00,
2013-02-08 07:11:00,28.0,18.0,-100.00,SW,233,2.0,3.0,66,0.00,,,-99.99,,2013-02-08 14:11:00,
2013-02-08 07:21:00,28.0,18.0,-100.00,SSE,164,6.0,7.0,67,0.00,,,-99.99,,2013-02-08 14:21:00,
2013-02-08 07:32:00,28.0,18.0,-100.00,SSE,164,6.0,7.0,67,0.00,,,-99.99,,2013-02-08 14:32:00,
2013-02-08 07:41:00,28.0,18.0,-100.00,SSE,164,6.0,7.0,67,0.00,,,-99.99,,2013-02-08 14:41:00,
2013-02-08 07:53:00,-999.0,18.0,-100.00,South,191,5.0,7.0,64,0.00,,,-99.99,,2013-02-08 14:53:00,
2013-02-08 08:02:00,-999.0,18.0,-100.00,South,191,5.0,7.0,64,0.00,,,-99.99,,2013-02-08 15:02:00,
2013-02-08 08:11:00,28.0,17.0,-100.00,SSW,206,4.0,6.0,63,0.00,,,-99.99,,2013-02-08 15:11:00,
2013-02-08 08:21:00,28.0,17.0,-100.00,SSW,206,4.0,6.0,63,0.00,,,-99.99,,2013-02-08 15:21:00,
2013-02-08 08:32:00,28.0,17.0,-100.00,SSW,206,4.0,6.0,63,0.00,,,-99.99,,2013-02-08 15:32:00,
2013-02-08 08:41:00,28.0,18.0,-100.00,West,261,2.0,4.0,66,0.00,,,-99.99,,2013-02-08 15:41:00,
2013-02-08 08:52:00,28.0,18.0,-100.00,SE,140,3.0,4.0,68,0.00,,,-99.99,,2013-02-08 15:52:00,
2013-02-08 09:01:00,28.0,18.0,-100.00,SE,140,3.0,4.0,68,0.00,,,-99.99,,2013-02-08 16:01:00,
2013-02-08 09:11:00,29.0,18.0,-100.00,SW,217,3.0,4.0,65,0.00,,,-99.99,,2013-02-08 16:11:00,
2013-02-08 09:21:00,30.0,19.0,-100.00,South,189,1.0,2.0,62,0.00,,,-99.99,,2013-02-08 16:21:00,
2013-02-08 09:32:00,30.0,19.0,-100.00,South,189,1.0,2.0,62,0.00,,,-99.99,,2013-02-08 16:32:00,
2013-02-08 09:42:00,31.0,19.0,-100.00,SW,229,0.0,2.0,60,0.00,,,-99.99,,2013-02-08 16:42:00,
2013-02-08 09:52:00,31.0,19.0,-100.00,SW,229,0.0,2.0,60,0.00,,,-99.99,,2013-02-08 16:52:00,
2013-02-08 10:02:00,31.0,19.0,-100.00,SW,229,0.0,2.0,60,0.00,,,-99.99,,2013-02-08 17:02:00,
2013-02-08 10:11:00,33.0,18.0,-100.00,South,181,0.0,1.0,55,0.00,,,-99.99,,2013-02-08 17:11:00,
2013-02-08 10:22:00,33.0,18.0,-100.00,SW,229,2.0,4.0,53,0.00,,,-99.99,,2013-02-08 17:22:00,
2013-02-08 10:32:00,33.0,18.0,-100.00,SW,229,2.0,4.0,53,0.00,,,-99.99,,2013-02-08 17:32:00,
2013-02-08 10:42:00,34.0,18.0,-100.00,West,267,1.0,2.0,52,0.00,,,-99.99,,2013-02-08 17:42:00,
2013-02-08 10:52:00,34.0,18.0,-100.00,NNW,339,2.0,4.0,52,0.00,,,-99.99,,2013-02-08 17:52:00,
2013-02-08 11:01:00,34.0,18.0,-100.00,NNW,339,2.0,4.0,52,0.00,,,-99.99,,2013-02-08 18:01:00,
2013-02-08 11:12:00,34.0,20.0,-100.00,WNW,296,1.0,3.0,55,0.00,,,-99.99,,2013-02-08 18:12:00,
2013-02-08 11:23:00,33.0,22.0,-100.00,NE,38,4.0,5.0,62,0.00,,,-99.99,,2013-02-08 18:23:00,
2013-02-08 11:33:00,33.0,22.0,-100.00,NE,38,4.0,5.0,62,0.00,,,-99.99,,2013-02-08 18:33:00,
2013-02-08 11:43:00,34.0,23.0,-100.00,ENE,62,2.0,4.0,63,0.00,,,-99.99,,2013-02-08 18:43:00,
2013-02-08 11:52:00,34.0,22.0,-100.00,SE,137,2.0,3.0,61,0.00,,,-99.99,,2013-02-08 18:52:00,
2013-02-08 12:01:00,34.0,22.0,-100.00,SE,137,2.0,3.0,61,0.00,,,-99.99,,2013-02-08 19:01:00,
2013-02-08 12:11:00,35.0,21.0,-100.00,SW,236,2.0,4.0,57,0.00,,,-99.99,,2013-02-08 19:11:00,
2013-02-08 12:22:00,35.0,20.0,-100.00,SW,234,2.0,3.0,52,0.00,,,-99.99,,2013-02-08 19:22:00,
2013-02-08 12:32:00,35.0,20.0,-100.00,SW,234,2.0,3.0,52,0.00,,,-99.99,,2013-02-08 19:32:00,
2013-02-08 12:42:00,36.0,19.0,-100.00,West,260,2.0,3.0,50,0.00,,,-99.99,,2013-02-08 19:42:00,
2013-02-08 12:52:00,37.0,19.0,-100.00,NNW,342,2.0,4.0,48,0.00,,,-99.99,,2013-02-08 19:52:00,
2013-02-08 13:01:00,37.0,19.0,-100.00,NNW,342,2.0,4.0,48,0.00,,,-99.99,,2013-02-08 20:01:00,
2013-02-08 13:11:00,37.0,20.0,-100.00,SW,223,2.0,3.0,49,0.00,,,-99.99,,2013-02-08 20:11:00,
2013-02-08 13:21:00,38.0,19.0,-100.00,SW,226,2.0,2.0,47,0.00,,,-99.99,,2013-02-08 20:21:00,
2013-02-08 13:31:00,38.0,19.0,-100.00,SW,226,2.0,2.0,47,0.00,,,-99.99,,2013-02-08 20:31:00,
2013-02-08 13:41:00,38.0,20.0,-100.00,WNW,287,2.0,3.0,47,0.00,,,-99.99,,2013-02-08 20:41:00,
2013-02-08 13:52:00,36.0,24.0,-100.00,SW,216,2.0,3.0,61,0.00,,,-99.99,,2013-02-08 20:52:00,
2013-02-08 14:01:00,36.0,24.0,-100.00,SW,216,2.0,3.0,61,0.00,,,-99.99,,2013-02-08 21:01:00,
2013-02-08 14:11:00,36.0,24.0,-100.00,SW,216,2.0,3.0,61,0.00,,,-99.99,,2013-02-08 21:11:00,
2013-02-08 14:21:00,36.0,25.0,-100.00,WSW,237,2.0,4.0,65,0.00,,,-99.99,,2013-02-08 21:21:00,
2013-02-08 14:32:00,36.0,25.0,-100.00,WSW,237,2.0,4.0,65,0.00,,,-99.99,,2013-02-08 21:32:00,
2013-02-08 14:42:00,37.0,25.0,-100.00,WNW,295,2.0,3.0,62,0.00,,,-99.99,,2013-02-08 21:42:00,
2013-02-08 14:52:00,37.0,25.0,-100.00,WNW,295,2.0,3.0,62,0.00,,,-99.99,,2013-02-08 21:52:00,
2013-02-08 15:01:00,37.0,25.0,-100.00,WNW,295,2.0,3.0,62,0.00,,,-99.99,,2013-02-08 22:01:00,
2013-02-08 15:11:00,36.0,27.0,-100.00,South,179,3.0,4.0,71,0.00,,,-99.99,,2013-02-08 22:11:00,
2013-02-08 15:21:00,36.0,27.0,-100.00,South,179,3.0,4.0,71,0.00,,,-99.99,,2013-02-08 22:21:00,
2013-02-08 15:31:00,36.0,27.0,-100.00,South,179,3.0,4.0,71,0.00,,,-99.99,,2013-02-08 22:31:00,
2013-02-08 15:41:00,35.0,28.0,-100.00,SSW,192,1.0,2.0,75,0.12,,,-99.99,,2013-02-08 22:41:00,
2013-02-08 15:52:00,34.0,29.0,-100.00,NNE,23,7.0,8.0,82,0.08,,,-99.99,,2013-02-08 22:52:00,
2013-02-08 16:01:00,34.0,29.0,-100.00,NNE,23,7.0,8.0,82,0.08,,,-99.99,,2013-02-08 23:01:00,
2013-02-08 16:11:00,34.0,30.0,-100.00,NNE,16,7.0,8.0,87,0.08,,,-99.99,,2013-02-08 23:11:00,
2013-02-08 16:21:00,34.0,33.0,-100.00,North,357,4.0,7.0,94,0.00,,,-99.99,,2013-02-08 23:21:00,
2013-02-08 16:31:00,34.0,33.0,-100.00,North,357,4.0,7.0,94,0.00,,,-99.99,,2013-02-08 23:31:00,
2013-02-08 16:42:00,34.0,33.0,-100.00,North,357,4.0,7.0,94,0.00,,,-99.99,,2013-02-08 23:42:00,
2013-02-08 16:52:00,34.0,32.0,-100.00,NNW,333,6.0,7.0,93,0.00,,,-99.99,,2013-02-08 23:52:00,
2013-02-08 17:01:00,34.0,32.0,-100.00,NNW,333,6.0,7.0,93,0.00,,,-99.99,,2013-02-09 00:01:00,
2013-02-08 17:11:00,34.0,32.0,-100.00,WNW,289,2.0,4.0,94,0.00,,,-99.99,,2013-02-09 00:11:00,
2013-02-08 17:21:00,35.0,32.0,-100.00,NE,44,6.0,9.0,91,0.00,,,-99.99,,2013-02-09 00:21:00,
2013-02-08 17:32:00,35.0,32.0,-100.00,NE,44,6.0,9.0,91,0.00,,,-99.99,,2013-02-09 00:32:00,
2013-02-08 17:42:00,35.0,32.0,-100.00,NE,38,7.0,9.0,89,0.00,,,-99.99,,2013-02-09 00:42:00,
2013-02-08 17:52:00,35.0,32.0,-100.00,NE,38,7.0,9.0,89,0.00,,,-99.99,,2013-02-09 00:52:00,
2013-02-08 18:01:00,35.0,32.0,-100.00,NE,38,7.0,9.0,89,0.00,,,-99.99,,2013-02-09 01:01:00,
2013-02-08 18:11:00,35.0,32.0,-100.00,NE,44,8.0,13.0,89,0.00,,,-99.99,,2013-02-09 01:11:00,
2013-02-08 18:21:00,34.0,32.0,-100.00,North,3,6.0,11.0,90,0.00,,,-99.99,,2013-02-09 01:21:00,
2013-02-08 18:31:00,34.0,32.0,-100.00,North,3,6.0,11.0,90,0.00,,,-99.99,,2013-02-09 01:31:00,
2013-02-08 18:41:00,34.0,32.0,-100.00,NNW,330,2.0,5.0,90,0.00,,,-99.99,,2013-02-09 01:41:00,
2013-02-08 18:52:00,34.0,32.0,-100.00,North,353,4.0,6.0,91,0.00,,,-99.99,,2013-02-09 01:52:00,
2013-02-08 19:01:00,34.0,32.0,-100.00,North,353,4.0,6.0,91,0.00,,,-99.99,,2013-02-09 02:01:00,
2013-02-08 19:11:00,34.0,32.0,-100.00,North,357,4.0,6.0,92,0.00,,,-99.99,,2013-02-09 02:11:00,
2013-02-08 19:21:00,34.0,32.0,-100.00,North,350,4.0,6.0,92,0.00,,,-99.99,,2013-02-09 02:21:00,
2013-02-08 19:32:00,34.0,32.0,-100.00,North,350,4.0,6.0,92,0.00,,,-99.99,,2013-02-09 02:32:00,
2013-02-08 19:41:00,34.0,32.0,-100.00,NNE,28,5.0,9.0,93,0.00,,,-99.99,,2013-02-09 02:41:00,
2013-02-08 19:52:00,34.0,32.0,-100.00,North,3,6.0,11.0,93,0.04,,,-99.99,,2013-02-09 02:52:00,
2013-02-08 20:01:00,34.0,32.0,-100.00,North,3,6.0,11.0,93,0.04,,,-99.99,,2013-02-09 03:01:00,
2013-02-08 20:11:00,34.0,32.0,-100.00,North,3,6.0,11.0,93,0.04,,,-99.99,,2013-02-09 03:11:00,
2013-02-08 20:21:00,34.0,32.0,-100.00,WNW,296,1.0,2.0,92,0.00,,,-99.99,,2013-02-09 03:21:00,
2013-02-08 20:31:00,34.0,32.0,-100.00,WNW,296,1.0,2.0,92,0.00,,,-99.99,,2013-02-09 03:31:00,
2013-02-08 20:41:00,34.0,31.0,-100.00,NNW,332,6.0,8.0,90,0.00,,,-99.99,,2013-02-09 03:41:00,
2013-02-08 20:52:00,34.0,31.0,-100.00,NNW,330,3.0,6.0,90,0.00,,,-99.99,,2013-02-09 03:52:00,
2013-02-08 21:02:00,34.0,31.0,-100.00,NNW,330,3.0,6.0,90,0.00,,,-99.99,,2013-02-09 04:02:00,
2013-02-08 21:11:00,34.0,31.0,-100.00,NW,311,3.0,6.0,89,0.00,,,-99.99,,2013-02-09 04:11:00,
2013-02-08 21:22:00,33.0,31.0,-100.00,NW,326,2.0,3.0,90,0.00,,,-99.99,,2013-02-09 04:22:00,
2013-02-08 21:32:00,33.0,31.0,-100.00,NW,326,2.0,3.0,90,0.00,,,-99.99,,2013-02-09 04:32:00,
2013-02-08 21:42:00,33.0,30.0,-100.00,NW,326,1.0,2.0,89,0.00,,,-99.99,,2013-02-09 04:42:00,
2013-02-08 21:52:00,33.0,30.0,-100.00,WNW,295,1.0,2.0,89,0.00,,,-99.99,,2013-02-09 04:52:00,
2013-02-08 22:02:00,33.0,30.0,-100.00,WNW,295,1.0,2.0,89,0.00,,,-99.99,,2013-02-09 05:02:00,
2013-02-08 22:12:00,33.0,30.0,-100.00,WNW,292,2.0,5.0,90,0.00,,,-99.99,,2013-02-09 05:12:00,
2013-02-08 22:22:00,33.0,29.0,-100.00,NNW,344,4.0,6.0,85,0.00,,,-99.99,,2013-02-09 05:22:00,
2013-02-08 22:31:00,33.0,29.0,-100.00,NNW,344,4.0,6.0,85,0.00,,,-99.99,,2013-02-09 05:31:00,
2013-02-08 22:42:00,33.0,29.0,-100.00,NNW,344,4.0,6.0,85,0.00,,,-99.99,,2013-02-09 05:42:00,
2013-02-08 22:52:00,34.0,29.0,-100.00,North,7,5.0,6.0,80,0.00,,,-99.99,,2013-02-09 05:52:00,
2013-02-08 23:01:00,34.0,29.0,-100.00,North,7,5.0,6.0,80,0.00,,,-99.99,,2013-02-09 06:01:00,
2013-02-08 23:11:00,34.0,27.0,-100.00,NNE,21,6.0,9.0,75,0.00,,,-99.99,,2013-02-09 06:11:00,
2013-02-08 23:21:00,34.0,27.0,-100.00,NNE,21,6.0,9.0,75,0.00,,,-99.99,,2013-02-09 06:21:00,
2013-02-08 23:31:00,34.0,27.0,-100.00,NNE,21,6.0,9.0,75,0.00,,,-99.99,,2013-02-09 06:31:00,
2013-02-08 23:41:00,34.0,27.0,-100.00,NNE,28,4.0,7.0,73,0.00,,,-99.99,,2013-02-09 06:41:00,
2013-02-08 23:52:00,34.0,26.0,-100.00,NNE,23,6.0,9.0,71,0.00,,,-99.99,,2013-02-09 06:52:00,